This is the latest recevied weather packets stored in our database for station/object IV3CLI-10. If no packets are shown the sender has not sent any weather packets the latest 10 day(s).
| Time | Temp. | Humidity | Pressure | Rain* | Wind** | Luminosity | Snow |
|---|---|---|---|---|---|---|---|
| 1777664404 | 15° C | 82% | 1025.3 hPa | - | - | - | - |
| 1777660802 | 16.67° C | 59% | 1024.4 hPa | - | - | - | - |
| 1777659277 | 17.78° C | 49% | 1023.9 hPa | - | - | - | - |
| 1777650897 | 22.22° C | 41% | 1023.7 hPa | - | - | - | - |
| 1777649095 | 22.78° C | 38% | 1023.9 hPa | - | - | - | - |
| 1777648201 | 23.33° C | 36% | 1023.8 hPa | - | - | - | - |
| 1777647295 | 23.89° C | 36% | 1024 hPa | - | - | - | - |
| 1777646393 | 23.89° C | 34% | 1024 hPa | - | - | - | - |
| 1777644593 | 23.33° C | 33% | 1024.4 hPa | - | - | - | - |
| 1777643693 | 23.89° C | 36% | 1024.6 hPa | - | - | - | - |
| 1777641888 | 22.22° C | 33% | 1025 hPa | - | - | - | - |
| 1777638288 | 22.22° C | 32% | 1025.7 hPa | - | - | - | - |
| 1777637388 | 22.78° C | 30% | 1025.9 hPa | - | - | - | - |
| 1777636487 | 23.33° C | 30% | 1026 hPa | - | - | - | - |
| 1777635587 | 21.67° C | 29% | 1026.3 hPa | - | - | - | - |
| 1777630203 | 21.67° C | 25% | 1027.2 hPa | - | - | - | - |
| 1777629302 | 21.67° C | 26% | 1027.2 hPa | - | - | - | - |
| 1777628402 | 23.89° C | 25% | 1027.4 hPa | - | - | - | - |
| 1777626602 | 22.78° C | 27% | 1027.6 hPa | - | - | - | - |
| 1777623902 | 20.56° C | 32% | 1027.8 hPa | - | - | - | - |
| 1777623002 | 19.44° C | 40% | 1027.9 hPa | - | - | - | - |
| 1777622102 | 17.78° C | 51% | 1028 hPa | - | - | - | - |
| 1777621202 | 16.67° C | 53% | 1028 hPa | - | - | - | - |
| 1777620302 | 16.67° C | 51% | 1028 hPa | - | - | - | - |
| 1777618501 | 17.78° C | 58% | 1028 hPa | - | - | - | - |
* Rain since midnight (hover to see other rain measurements)
** Current wind speed in m/s (hover to see current wind gust speed)